sensor_id;sensor_type;location;lat;lon;timestamp;P1;durP1;ratioP1;P2;durP2;ratioP2
25079;SDS011;13071;48.868;9.996;2023-02-28T00:00:08;1.60;;;1.50;;
25079;SDS011;13071;48.868;9.996;2023-02-28T00:02:36;1.83;;;1.10;;
25079;SDS011;13071;48.868;9.996;2023-02-28T00:05:03;3.47;;;1.80;;
25079;SDS011;13071;48.868;9.996;2023-02-28T00:07:31;1.93;;;1.50;;
25079;SDS011;13071;48.868;9.996;2023-02-28T00:09:58;2.83;;;1.70;;
25079;SDS011;13071;48.868;9.996;2023-02-28T00:12:26;3.67;;;1.70;;
25079;SDS011;13071;48.868;9.996;2023-02-28T00:14:53;3.77;;;1.70;;
25079;SDS011;13071;48.868;9.996;2023-02-28T00:17:19;2.80;;;1.80;;
25079;SDS011;13071;48.868;9.996;2023-02-28T00:19:47;2.00;;;1.50;;
25079;SDS011;13071;48.868;9.996;2023-02-28T00:22:14;4.30;;;1.43;;
25079;SDS011;13071;48.868;9.996;2023-02-28T00:24:40;1.83;;;1.33;;
25079;SDS011;13071;48.868;9.996;2023-02-28T00:27:07;5.47;;;3.03;;
25079;SDS011;13071;48.868;9.996;2023-02-28T00:29:35;3.33;;;2.20;;
25079;SDS011;13071;48.868;9.996;2023-02-28T00:32:02;3.03;;;1.80;;
25079;SDS011;13071;48.868;9.996;2023-02-28T00:34:29;3.53;;;2.37;;
25079;SDS011;13071;48.868;9.996;2023-02-28T00:36:56;4.40;;;1.77;;
25079;SDS011;13071;48.868;9.996;2023-02-28T00:39:22;3.70;;;1.43;;
25079;SDS011;13071;48.868;9.996;2023-02-28T00:41:49;1.50;;;1.40;;
25079;SDS011;13071;48.868;9.996;2023-02-28T00:44:15;2.00;;;1.10;;
25079;SDS011;13071;48.868;9.996;2023-02-28T00:46:43;2.20;;;2.00;;
25079;SDS011;13071;48.868;9.996;2023-02-28T00:49:10;2.33;;;1.20;;
25079;SDS011;13071;48.868;9.996;2023-02-28T00:51:36;4.00;;;2.47;;
25079;SDS011;13071;48.868;9.996;2023-02-28T00:54:03;1.10;;;1.00;;
25079;SDS011;13071;48.868;9.996;2023-02-28T00:56:29;2.60;;;1.60;;
25079;SDS011;13071;48.868;9.996;2023-02-28T00:58:56;2.23;;;1.77;;
25079;SDS011;13071;48.868;9.996;2023-02-28T01:01:23;3.70;;;1.70;;
25079;SDS011;13071;48.868;9.996;2023-02-28T01:03:50;4.40;;;2.10;;
25079;SDS011;13071;48.868;9.996;2023-02-28T01:06:17;3.83;;;2.00;;
25079;SDS011;13071;48.868;9.996;2023-02-28T01:08:43;9.50;;;2.67;;
25079;SDS011;13071;48.868;9.996;2023-02-28T01:11:11;3.17;;;1.70;;
25079;SDS011;13071;48.868;9.996;2023-02-28T01:13:39;1.90;;;1.60;;
25079;SDS011;13071;48.868;9.996;2023-02-28T01:16:06;5.17;;;1.80;;
25079;SDS011;13071;48.868;9.996;2023-02-28T01:18:33;1.50;;;1.40;;
25079;SDS011;13071;48.868;9.996;2023-02-28T01:21:04;5.97;;;2.40;;
25079;SDS011;13071;48.868;9.996;2023-02-28T01:23:31;2.50;;;1.47;;
25079;SDS011;13071;48.868;9.996;2023-02-28T01:25:58;2.03;;;1.60;;
25079;SDS011;13071;48.868;9.996;2023-02-28T01:28:30;3.30;;;1.80;;
25079;SDS011;13071;48.868;9.996;2023-02-28T01:30:57;1.67;;;1.53;;
25079;SDS011;13071;48.868;9.996;2023-02-28T01:33:23;4.90;;;2.40;;
25079;SDS011;13071;48.868;9.996;2023-02-28T01:35:56;3.70;;;2.77;;
25079;SDS011;13071;48.868;9.996;2023-02-28T01:38:25;7.80;;;1.97;;
25079;SDS011;13071;48.868;9.996;2023-02-28T01:40:52;2.77;;;1.80;;
25079;SDS011;13071;48.868;9.996;2023-02-28T01:43:21;1.93;;;1.10;;
25079;SDS011;13071;48.868;9.996;2023-02-28T01:45:50;6.20;;;2.80;;
25079;SDS011;13071;48.868;9.996;2023-02-28T01:48:16;4.37;;;2.03;;
25079;SDS011;13071;48.868;9.996;2023-02-28T01:50:45;3.67;;;2.60;;
25079;SDS011;13071;48.868;9.996;2023-02-28T01:53:14;18.93;;;2.10;;
25079;SDS011;13071;48.868;9.996;2023-02-28T01:55:47;4.57;;;2.00;;
25079;SDS011;13071;48.868;9.996;2023-02-28T01:58:16;3.97;;;2.27;;
25079;SDS011;13071;48.868;9.996;2023-02-28T02:00:42;6.20;;;2.50;;
25079;SDS011;13071;48.868;9.996;2023-02-28T02:03:10;4.37;;;2.23;;
25079;SDS011;13071;48.868;9.996;2023-02-28T02:05:40;1.73;;;1.57;;
25079;SDS011;13071;48.868;9.996;2023-02-28T02:08:12;7.17;;;2.17;;
25079;SDS011;13071;48.868;9.996;2023-02-28T02:10:43;5.27;;;2.27;;
25079;SDS011;13071;48.868;9.996;2023-02-28T02:13:37;2.10;;;1.60;;
25079;SDS011;13071;48.868;9.996;2023-02-28T02:16:21;2.80;;;1.93;;
25079;SDS011;13071;48.868;9.996;2023-02-28T02:18:57;7.00;;;2.40;;
25079;SDS011;13071;48.868;9.996;2023-02-28T02:21:46;8.00;;;4.13;;
25079;SDS011;13071;48.868;9.996;2023-02-28T02:24:36;5.93;;;3.80;;
25079;SDS011;13071;48.868;9.996;2023-02-28T02:27:19;6.33;;;3.27;;
25079;SDS011;13071;48.868;9.996;2023-02-28T02:35:59;11.20;;;4.67;;
25079;SDS011;13071;48.868;9.996;2023-02-28T02:38:32;8.80;;;4.50;;
25079;SDS011;13071;48.868;9.996;2023-02-28T02:41:05;7.10;;;2.37;;
25079;SDS011;13071;48.868;9.996;2023-02-28T02:43:39;5.83;;;2.40;;
25079;SDS011;13071;48.868;9.996;2023-02-28T02:46:12;5.53;;;2.40;;
25079;SDS011;13071;48.868;9.996;2023-02-28T02:48:43;2.70;;;1.70;;
25079;SDS011;13071;48.868;9.996;2023-02-28T02:51:13;3.63;;;2.53;;
25079;SDS011;13071;48.868;9.996;2023-02-28T02:53:42;6.20;;;2.33;;
25079;SDS011;13071;48.868;9.996;2023-02-28T02:56:14;4.93;;;1.83;;
25079;SDS011;13071;48.868;9.996;2023-02-28T02:58:44;6.53;;;1.97;;
25079;SDS011;13071;48.868;9.996;2023-02-28T03:01:14;3.00;;;1.63;;
25079;SDS011;13071;48.868;9.996;2023-02-28T03:03:52;4.83;;;2.40;;
25079;SDS011;13071;48.868;9.996;2023-02-28T03:06:23;2.60;;;1.53;;
25079;SDS011;13071;48.868;9.996;2023-02-28T03:08:49;2.77;;;2.03;;
25079;SDS011;13071;48.868;9.996;2023-02-28T03:11:16;16.43;;;5.73;;
25079;SDS011;13071;48.868;9.996;2023-02-28T03:13:49;6.17;;;2.23;;
25079;SDS011;13071;48.868;9.996;2023-02-28T03:16:28;2.60;;;2.00;;
25079;SDS011;13071;48.868;9.996;2023-02-28T03:19:03;1.50;;;1.37;;
25079;SDS011;13071;48.868;9.996;2023-02-28T03:21:40;11.67;;;5.10;;
25079;SDS011;13071;48.868;9.996;2023-02-28T03:24:14;4.33;;;2.13;;
25079;SDS011;13071;48.868;9.996;2023-02-28T03:26:45;4.60;;;2.03;;
25079;SDS011;13071;48.868;9.996;2023-02-28T03:29:19;2.77;;;1.67;;
25079;SDS011;13071;48.868;9.996;2023-02-28T03:31:52;5.03;;;2.27;;
25079;SDS011;13071;48.868;9.996;2023-02-28T03:34:26;6.93;;;3.40;;
25079;SDS011;13071;48.868;9.996;2023-02-28T03:37:00;3.97;;;2.33;;
25079;SDS011;13071;48.868;9.996;2023-02-28T03:39:33;4.33;;;1.97;;
25079;SDS011;13071;48.868;9.996;2023-02-28T03:42:04;9.73;;;2.47;;
25079;SDS011;13071;48.868;9.996;2023-02-28T03:44:36;4.70;;;2.17;;
25079;SDS011;13071;48.868;9.996;2023-02-28T03:47:07;4.17;;;2.20;;
25079;SDS011;13071;48.868;9.996;2023-02-28T03:49:40;4.33;;;2.37;;
25079;SDS011;13071;48.868;9.996;2023-02-28T03:52:12;6.90;;;2.90;;
25079;SDS011;13071;48.868;9.996;2023-02-28T03:54:40;5.87;;;3.30;;
25079;SDS011;13071;48.868;9.996;2023-02-28T03:57:10;4.93;;;2.10;;
25079;SDS011;13071;48.868;9.996;2023-02-28T03:59:45;8.17;;;2.20;;
25079;SDS011;13071;48.868;9.996;2023-02-28T04:02:16;4.40;;;2.80;;
25079;SDS011;13071;48.868;9.996;2023-02-28T04:04:43;9.57;;;3.80;;
25079;SDS011;13071;48.868;9.996;2023-02-28T04:07:15;4.27;;;2.40;;
25079;SDS011;13071;48.868;9.996;2023-02-28T04:09:41;2.60;;;2.23;;
25079;SDS011;13071;48.868;9.996;2023-02-28T04:12:08;7.47;;;3.70;;
25079;SDS011;13071;48.868;9.996;2023-02-28T04:14:36;5.90;;;3.40;;
25079;SDS011;13071;48.868;9.996;2023-02-28T04:17:02;4.03;;;1.97;;
25079;SDS011;13071;48.868;9.996;2023-02-28T04:19:29;3.37;;;2.47;;
25079;SDS011;13071;48.868;9.996;2023-02-28T04:21:55;6.00;;;1.93;;
25079;SDS011;13071;48.868;9.996;2023-02-28T04:24:24;3.87;;;2.47;;
25079;SDS011;13071;48.868;9.996;2023-02-28T04:26:53;4.57;;;2.80;;
25079;SDS011;13071;48.868;9.996;2023-02-28T04:29:22;5.93;;;2.70;;
25079;SDS011;13071;48.868;9.996;2023-02-28T04:31:50;5.03;;;2.67;;
25079;SDS011;13071;48.868;9.996;2023-02-28T04:34:18;4.70;;;2.10;;
25079;SDS011;13071;48.868;9.996;2023-02-28T04:36:44;9.83;;;2.90;;
25079;SDS011;13071;48.868;9.996;2023-02-28T04:39:14;6.20;;;2.67;;
25079;SDS011;13071;48.868;9.996;2023-02-28T04:41:42;5.23;;;2.77;;
25079;SDS011;13071;48.868;9.996;2023-02-28T04:44:08;8.63;;;2.80;;
25079;SDS011;13071;48.868;9.996;2023-02-28T04:46:35;4.63;;;1.93;;
25079;SDS011;13071;48.868;9.996;2023-02-28T04:49:01;10.17;;;5.10;;
25079;SDS011;13071;48.868;9.996;2023-02-28T04:51:28;9.37;;;4.77;;
25079;SDS011;13071;48.868;9.996;2023-02-28T04:53:55;10.97;;;5.00;;
25079;SDS011;13071;48.868;9.996;2023-02-28T04:56:21;6.53;;;2.80;;
25079;SDS011;13071;48.868;9.996;2023-02-28T04:58:49;6.13;;;2.43;;
25079;SDS011;13071;48.868;9.996;2023-02-28T05:01:20;4.83;;;2.40;;
25079;SDS011;13071;48.868;9.996;2023-02-28T05:03:48;6.43;;;2.70;;
25079;SDS011;13071;48.868;9.996;2023-02-28T05:06:15;6.13;;;2.77;;
25079;SDS011;13071;48.868;9.996;2023-02-28T05:08:42;4.83;;;2.37;;
25079;SDS011;13071;48.868;9.996;2023-02-28T05:11:13;5.90;;;1.70;;
25079;SDS011;13071;48.868;9.996;2023-02-28T05:13:42;6.03;;;2.63;;
25079;SDS011;13071;48.868;9.996;2023-02-28T05:16:10;6.77;;;2.67;;
25079;SDS011;13071;48.868;9.996;2023-02-28T05:18:37;8.43;;;3.10;;
25079;SDS011;13071;48.868;9.996;2023-02-28T05:21:04;15.00;;;2.97;;
25079;SDS011;13071;48.868;9.996;2023-02-28T05:23:30;6.77;;;2.97;;
25079;SDS011;13071;48.868;9.996;2023-02-28T05:25:57;9.90;;;3.00;;
25079;SDS011;13071;48.868;9.996;2023-02-28T05:28:24;7.73;;;2.63;;
25079;SDS011;13071;48.868;9.996;2023-02-28T05:30:50;6.30;;;3.23;;
25079;SDS011;13071;48.868;9.996;2023-02-28T05:33:18;6.20;;;2.63;;
25079;SDS011;13071;48.868;9.996;2023-02-28T05:35:45;4.30;;;2.30;;
25079;SDS011;13071;48.868;9.996;2023-02-28T05:38:11;6.80;;;2.43;;
25079;SDS011;13071;48.868;9.996;2023-02-28T05:40:38;9.67;;;2.93;;
25079;SDS011;13071;48.868;9.996;2023-02-28T05:43:05;8.30;;;2.57;;
25079;SDS011;13071;48.868;9.996;2023-02-28T05:45:32;5.20;;;2.90;;
25079;SDS011;13071;48.868;9.996;2023-02-28T05:47:58;3.83;;;2.07;;
25079;SDS011;13071;48.868;9.996;2023-02-28T05:50:26;14.83;;;3.27;;
25079;SDS011;13071;48.868;9.996;2023-02-28T05:52:53;4.23;;;2.37;;
25079;SDS011;13071;48.868;9.996;2023-02-28T05:55:19;10.80;;;4.70;;
25079;SDS011;13071;48.868;9.996;2023-02-28T05:57:46;11.03;;;3.70;;
25079;SDS011;13071;48.868;9.996;2023-02-28T06:00:13;20.23;;;5.67;;
25079;SDS011;13071;48.868;9.996;2023-02-28T06:02:42;5.73;;;2.70;;
25079;SDS011;13071;48.868;9.996;2023-02-28T06:05:11;5.60;;;2.73;;
25079;SDS011;13071;48.868;9.996;2023-02-28T06:07:41;7.10;;;2.70;;
25079;SDS011;13071;48.868;9.996;2023-02-28T06:10:08;3.90;;;2.60;;
25079;SDS011;13071;48.868;9.996;2023-02-28T06:12:36;6.53;;;2.67;;
25079;SDS011;13071;48.868;9.996;2023-02-28T06:15:03;8.67;;;3.27;;
25079;SDS011;13071;48.868;9.996;2023-02-28T06:17:30;7.03;;;2.87;;
25079;SDS011;13071;48.868;9.996;2023-02-28T06:19:56;7.77;;;2.77;;
25079;SDS011;13071;48.868;9.996;2023-02-28T06:22:23;5.27;;;3.07;;
25079;SDS011;13071;48.868;9.996;2023-02-28T06:24:51;4.13;;;2.30;;
25079;SDS011;13071;48.868;9.996;2023-02-28T06:27:19;4.90;;;2.67;;
25079;SDS011;13071;48.868;9.996;2023-02-28T06:29:47;7.93;;;2.83;;
25079;SDS011;13071;48.868;9.996;2023-02-28T06:32:13;9.33;;;2.97;;
25079;SDS011;13071;48.868;9.996;2023-02-28T06:34:40;9.93;;;3.30;;
25079;SDS011;13071;48.868;9.996;2023-02-28T06:37:06;9.90;;;3.17;;
25079;SDS011;13071;48.868;9.996;2023-02-28T06:39:33;6.53;;;3.63;;
25079;SDS011;13071;48.868;9.996;2023-02-28T06:42:01;10.63;;;3.33;;
25079;SDS011;13071;48.868;9.996;2023-02-28T06:44:27;11.07;;;3.23;;
25079;SDS011;13071;48.868;9.996;2023-02-28T06:47:00;7.30;;;2.90;;
25079;SDS011;13071;48.868;9.996;2023-02-28T06:49:28;8.17;;;2.70;;
25079;SDS011;13071;48.868;9.996;2023-02-28T06:51:54;8.50;;;3.83;;
25079;SDS011;13071;48.868;9.996;2023-02-28T06:54:21;8.93;;;3.13;;
25079;SDS011;13071;48.868;9.996;2023-02-28T06:56:48;5.50;;;3.47;;
25079;SDS011;13071;48.868;9.996;2023-02-28T06:59:16;5.33;;;3.03;;
25079;SDS011;13071;48.868;9.996;2023-02-28T07:01:42;7.60;;;2.70;;
25079;SDS011;13071;48.868;9.996;2023-02-28T07:04:09;6.30;;;3.70;;
25079;SDS011;13071;48.868;9.996;2023-02-28T07:06:36;8.30;;;3.67;;
25079;SDS011;13071;48.868;9.996;2023-02-28T07:09:02;8.63;;;3.77;;
25079;SDS011;13071;48.868;9.996;2023-02-28T07:11:30;7.83;;;3.43;;
25079;SDS011;13071;48.868;9.996;2023-02-28T07:13:57;6.77;;;3.83;;
25079;SDS011;13071;48.868;9.996;2023-02-28T07:16:25;10.03;;;3.37;;
25079;SDS011;13071;48.868;9.996;2023-02-28T07:18:52;11.63;;;4.00;;
25079;SDS011;13071;48.868;9.996;2023-02-28T07:21:19;8.77;;;3.00;;
25079;SDS011;13071;48.868;9.996;2023-02-28T07:23:45;7.47;;;3.30;;
25079;SDS011;13071;48.868;9.996;2023-02-28T07:26:13;6.97;;;2.47;;
25079;SDS011;13071;48.868;9.996;2023-02-28T07:28:42;10.27;;;3.53;;
25079;SDS011;13071;48.868;9.996;2023-02-28T07:31:09;12.53;;;3.60;;
25079;SDS011;13071;48.868;9.996;2023-02-28T07:33:38;10.77;;;2.97;;
25079;SDS011;13071;48.868;9.996;2023-02-28T07:36:05;8.67;;;3.23;;
25079;SDS011;13071;48.868;9.996;2023-02-28T07:38:34;8.10;;;2.90;;
25079;SDS011;13071;48.868;9.996;2023-02-28T07:41:02;7.50;;;2.90;;
25079;SDS011;13071;48.868;9.996;2023-02-28T07:43:30;6.03;;;3.27;;
25079;SDS011;13071;48.868;9.996;2023-02-28T07:46:00;10.63;;;3.37;;
25079;SDS011;13071;48.868;9.996;2023-02-28T07:48:28;11.90;;;4.07;;
25079;SDS011;13071;48.868;9.996;2023-02-28T07:50:56;9.57;;;3.90;;
25079;SDS011;13071;48.868;9.996;2023-02-28T07:53:23;8.13;;;3.50;;
25079;SDS011;13071;48.868;9.996;2023-02-28T07:55:49;7.13;;;3.03;;
25079;SDS011;13071;48.868;9.996;2023-02-28T07:58:16;8.67;;;3.33;;
25079;SDS011;13071;48.868;9.996;2023-02-28T08:00:43;11.77;;;4.10;;
25079;SDS011;13071;48.868;9.996;2023-02-28T08:03:10;6.73;;;3.90;;
25079;SDS011;13071;48.868;9.996;2023-02-28T08:05:38;8.47;;;3.83;;
25079;SDS011;13071;48.868;9.996;2023-02-28T08:08:06;10.23;;;3.93;;
25079;SDS011;13071;48.868;9.996;2023-02-28T08:10:33;8.23;;;2.70;;
25079;SDS011;13071;48.868;9.996;2023-02-28T08:13:00;8.40;;;3.50;;
25079;SDS011;13071;48.868;9.996;2023-02-28T08:15:27;9.67;;;3.43;;
25079;SDS011;13071;48.868;9.996;2023-02-28T08:17:53;8.93;;;4.00;;
25079;SDS011;13071;48.868;9.996;2023-02-28T08:20:21;10.23;;;3.63;;
25079;SDS011;13071;48.868;9.996;2023-02-28T08:22:48;8.97;;;3.73;;
25079;SDS011;13071;48.868;9.996;2023-02-28T08:25:16;11.87;;;4.00;;
25079;SDS011;13071;48.868;9.996;2023-02-28T08:27:43;16.03;;;4.40;;
25079;SDS011;13071;48.868;9.996;2023-02-28T08:30:10;9.90;;;4.33;;
25079;SDS011;13071;48.868;9.996;2023-02-28T08:32:37;13.13;;;3.90;;
25079;SDS011;13071;48.868;9.996;2023-02-28T08:35:04;9.70;;;3.77;;
25079;SDS011;13071;48.868;9.996;2023-02-28T08:37:31;8.40;;;3.40;;
25079;SDS011;13071;48.868;9.996;2023-02-28T08:39:58;12.00;;;4.73;;
25079;SDS011;13071;48.868;9.996;2023-02-28T08:42:26;10.57;;;3.67;;
25079;SDS011;13071;48.868;9.996;2023-02-28T08:44:52;7.67;;;3.37;;
25079;SDS011;13071;48.868;9.996;2023-02-28T08:47:19;8.87;;;3.57;;
25079;SDS011;13071;48.868;9.996;2023-02-28T08:49:45;7.77;;;4.27;;
25079;SDS011;13071;48.868;9.996;2023-02-28T08:52:12;7.10;;;3.57;;
25079;SDS011;13071;48.868;9.996;2023-02-28T08:54:39;11.43;;;4.23;;
25079;SDS011;13071;48.868;9.996;2023-02-28T08:57:06;11.37;;;4.27;;
25079;SDS011;13071;48.868;9.996;2023-02-28T08:59:34;12.23;;;4.47;;
25079;SDS011;13071;48.868;9.996;2023-02-28T09:02:01;12.17;;;4.57;;
25079;SDS011;13071;48.868;9.996;2023-02-28T09:04:28;8.80;;;3.97;;
25079;SDS011;13071;48.868;9.996;2023-02-28T09:06:55;10.23;;;4.27;;
25079;SDS011;13071;48.868;9.996;2023-02-28T09:09:22;9.43;;;4.70;;
25079;SDS011;13071;48.868;9.996;2023-02-28T09:11:49;11.37;;;4.50;;
25079;SDS011;13071;48.868;9.996;2023-02-28T09:14:15;10.23;;;4.47;;
25079;SDS011;13071;48.868;9.996;2023-02-28T09:16:44;17.90;;;4.30;;
25079;SDS011;13071;48.868;9.996;2023-02-28T09:19:10;13.43;;;5.77;;
25079;SDS011;13071;48.868;9.996;2023-02-28T09:21:37;10.73;;;4.87;;
25079;SDS011;13071;48.868;9.996;2023-02-28T09:24:04;9.77;;;4.10;;
25079;SDS011;13071;48.868;9.996;2023-02-28T09:26:31;13.20;;;5.03;;
25079;SDS011;13071;48.868;9.996;2023-02-28T09:28:57;9.50;;;4.63;;
25079;SDS011;13071;48.868;9.996;2023-02-28T09:31:25;10.37;;;4.37;;
25079;SDS011;13071;48.868;9.996;2023-02-28T09:33:56;21.17;;;5.23;;
25079;SDS011;13071;48.868;9.996;2023-02-28T09:36:24;8.43;;;4.20;;
25079;SDS011;13071;48.868;9.996;2023-02-28T09:38:53;10.20;;;5.40;;
25079;SDS011;13071;48.868;9.996;2023-02-28T09:41:21;8.03;;;3.97;;
25079;SDS011;13071;48.868;9.996;2023-02-28T09:43:50;11.47;;;4.30;;
25079;SDS011;13071;48.868;9.996;2023-02-28T09:46:26;12.23;;;4.83;;
25079;SDS011;13071;48.868;9.996;2023-02-28T09:48:57;8.83;;;3.83;;
25079;SDS011;13071;48.868;9.996;2023-02-28T09:51:30;12.70;;;4.63;;
25079;SDS011;13071;48.868;9.996;2023-02-28T09:54:03;10.00;;;4.07;;
25079;SDS011;13071;48.868;9.996;2023-02-28T09:56:31;10.53;;;4.83;;
25079;SDS011;13071;48.868;9.996;2023-02-28T09:59:02;13.97;;;4.93;;
25079;SDS011;13071;48.868;9.996;2023-02-28T10:01:37;14.43;;;4.10;;
25079;SDS011;13071;48.868;9.996;2023-02-28T10:04:10;11.17;;;5.00;;
25079;SDS011;13071;48.868;9.996;2023-02-28T10:06:54;17.03;;;4.53;;
25079;SDS011;13071;48.868;9.996;2023-02-28T10:09:23;9.80;;;4.40;;
25079;SDS011;13071;48.868;9.996;2023-02-28T10:11:54;12.93;;;5.17;;
25079;SDS011;13071;48.868;9.996;2023-02-28T10:14:24;13.13;;;4.93;;
25079;SDS011;13071;48.868;9.996;2023-02-28T10:16:55;11.47;;;4.30;;
25079;SDS011;13071;48.868;9.996;2023-02-28T10:19:27;18.93;;;4.70;;
25079;SDS011;13071;48.868;9.996;2023-02-28T10:21:59;10.37;;;4.17;;
25079;SDS011;13071;48.868;9.996;2023-02-28T10:24:30;12.27;;;5.00;;
25079;SDS011;13071;48.868;9.996;2023-02-28T10:27:01;9.73;;;4.77;;
25079;SDS011;13071;48.868;9.996;2023-02-28T10:29:39;15.43;;;5.13;;
25079;SDS011;13071;48.868;9.996;2023-02-28T10:32:08;9.50;;;4.40;;
25079;SDS011;13071;48.868;9.996;2023-02-28T10:34:41;12.95;;;5.03;;
25079;SDS011;13071;48.868;9.996;2023-02-28T10:37:07;12.03;;;4.90;;
25079;SDS011;13071;48.868;9.996;2023-02-28T10:39:37;12.57;;;5.30;;
25079;SDS011;13071;48.868;9.996;2023-02-28T10:42:05;11.93;;;4.50;;
25079;SDS011;13071;48.868;9.996;2023-02-28T10:44:46;10.60;;;5.20;;
25079;SDS011;13071;48.868;9.996;2023-02-28T10:47:14;13.23;;;5.55;;
25079;SDS011;13071;48.868;9.996;2023-02-28T10:49:48;15.80;;;5.80;;
25079;SDS011;13071;48.868;9.996;2023-02-28T10:52:32;12.52;;;5.40;;
25079;SDS011;13071;48.868;9.996;2023-02-28T10:55:15;13.43;;;5.32;;
25079;SDS011;13071;48.868;9.996;2023-02-28T10:57:47;10.13;;;4.82;;
25079;SDS011;13071;48.868;9.996;2023-02-28T11:00:15;11.33;;;5.47;;
25079;SDS011;13071;48.868;9.996;2023-02-28T11:02:44;11.23;;;5.23;;
25079;SDS011;13071;48.868;9.996;2023-02-28T11:05:26;13.40;;;5.00;;
25079;SDS011;13071;48.868;9.996;2023-02-28T11:07:54;13.23;;;5.57;;
25079;SDS011;13071;48.868;9.996;2023-02-28T11:10:23;11.02;;;5.22;;
25079;SDS011;13071;48.868;9.996;2023-02-28T11:12:54;15.10;;;5.55;;
25079;SDS011;13071;48.868;9.996;2023-02-28T11:15:23;8.80;;;4.90;;
25079;SDS011;13071;48.868;9.996;2023-02-28T11:17:55;19.55;;;6.50;;
25079;SDS011;13071;48.868;9.996;2023-02-28T11:20:24;16.17;;;6.60;;
25079;SDS011;13071;48.868;9.996;2023-02-28T11:22:54;12.63;;;5.07;;
25079;SDS011;13071;48.868;9.996;2023-02-28T11:25:23;12.10;;;4.68;;
25079;SDS011;13071;48.868;9.996;2023-02-28T11:27:51;10.00;;;4.82;;
25079;SDS011;13071;48.868;9.996;2023-02-28T11:30:32;13.98;;;6.00;;
25079;SDS011;13071;48.868;9.996;2023-02-28T11:33:01;16.02;;;5.55;;
25079;SDS011;13071;48.868;9.996;2023-02-28T11:35:46;11.13;;;4.93;;
25079;SDS011;13071;48.868;9.996;2023-02-28T11:38:15;12.63;;;5.47;;
25079;SDS011;13071;48.868;9.996;2023-02-28T11:40:43;8.95;;;5.07;;
25079;SDS011;13071;48.868;9.996;2023-02-28T11:43:22;13.55;;;5.55;;
25079;SDS011;13071;48.868;9.996;2023-02-28T11:46:05;15.77;;;5.20;;
25079;SDS011;13071;48.868;9.996;2023-02-28T11:48:40;12.05;;;5.40;;
25079;SDS011;13071;48.868;9.996;2023-02-28T11:51:17;12.10;;;5.25;;
25079;SDS011;13071;48.868;9.996;2023-02-28T11:53:50;12.75;;;4.95;;
25079;SDS011;13071;48.868;9.996;2023-02-28T11:56:26;16.30;;;5.53;;
25079;SDS011;13071;48.868;9.996;2023-02-28T11:59:04;17.25;;;5.38;;
25079;SDS011;13071;48.868;9.996;2023-02-28T12:01:47;13.00;;;5.70;;
25079;SDS011;13071;48.868;9.996;2023-02-28T12:04:32;15.57;;;5.90;;
25079;SDS011;13071;48.868;9.996;2023-02-28T12:07:09;9.07;;;4.72;;
25079;SDS011;13071;48.868;9.996;2023-02-28T12:09:44;12.02;;;4.43;;
25079;SDS011;13071;48.868;9.996;2023-02-28T12:12:22;12.63;;;5.32;;
25079;SDS011;13071;48.868;9.996;2023-02-28T12:15:03;14.63;;;5.00;;
25079;SDS011;13071;48.868;9.996;2023-02-28T12:17:51;21.08;;;6.22;;
25079;SDS011;13071;48.868;9.996;2023-02-28T12:20:30;9.98;;;4.85;;
25079;SDS011;13071;48.868;9.996;2023-02-28T12:23:08;11.73;;;5.28;;
25079;SDS011;13071;48.868;9.996;2023-02-28T12:25:49;10.13;;;4.72;;
25079;SDS011;13071;48.868;9.996;2023-02-28T12:28:23;11.65;;;5.55;;
25079;SDS011;13071;48.868;9.996;2023-02-28T12:30:54;13.65;;;5.50;;
25079;SDS011;13071;48.868;9.996;2023-02-28T12:33:24;14.25;;;6.25;;
25079;SDS011;13071;48.868;9.996;2023-02-28T12:35:58;11.73;;;5.60;;
25079;SDS011;13071;48.868;9.996;2023-02-28T12:38:34;12.93;;;6.35;;
25079;SDS011;13071;48.868;9.996;2023-02-28T12:41:05;11.82;;;5.78;;
25079;SDS011;13071;48.868;9.996;2023-02-28T12:43:38;15.43;;;5.88;;
25079;SDS011;13071;48.868;9.996;2023-02-28T12:46:10;12.43;;;5.80;;
25079;SDS011;13071;48.868;9.996;2023-02-28T12:48:40;17.08;;;5.97;;
25079;SDS011;13071;48.868;9.996;2023-02-28T12:51:11;17.00;;;6.80;;
25079;SDS011;13071;48.868;9.996;2023-02-28T12:53:45;13.60;;;5.93;;
25079;SDS011;13071;48.868;9.996;2023-02-28T12:56:22;17.00;;;6.88;;
25079;SDS011;13071;48.868;9.996;2023-02-28T12:59:01;15.70;;;6.75;;
25079;SDS011;13071;48.868;9.996;2023-02-28T13:01:45;16.85;;;5.80;;
25079;SDS011;13071;48.868;9.996;2023-02-28T13:04:36;15.07;;;6.95;;
25079;SDS011;13071;48.868;9.996;2023-02-28T13:10:11;12.25;;;4.93;;
25079;SDS011;13071;48.868;9.996;2023-02-28T13:12:46;13.70;;;5.63;;
25079;SDS011;13071;48.868;9.996;2023-02-28T13:15:16;17.42;;;6.50;;
25079;SDS011;13071;48.868;9.996;2023-02-28T13:17:49;15.57;;;5.55;;
25079;SDS011;13071;48.868;9.996;2023-02-28T13:20:17;10.82;;;5.32;;
25079;SDS011;13071;48.868;9.996;2023-02-28T13:22:47;12.57;;;5.85;;
25079;SDS011;13071;48.868;9.996;2023-02-28T13:31:28;12.90;;;5.50;;
25079;SDS011;13071;48.868;9.996;2023-02-28T13:34:05;16.63;;;5.80;;
25079;SDS011;13071;48.868;9.996;2023-02-28T13:36:39;18.00;;;5.65;;
25079;SDS011;13071;48.868;9.996;2023-02-28T13:45:20;13.30;;;5.93;;
25079;SDS011;13071;48.868;9.996;2023-02-28T13:47:54;13.43;;;5.97;;
25079;SDS011;13071;48.868;9.996;2023-02-28T13:50:24;13.15;;;6.18;;
25079;SDS011;13071;48.868;9.996;2023-02-28T13:52:58;15.23;;;5.90;;
25079;SDS011;13071;48.868;9.996;2023-02-28T13:55:57;11.52;;;5.32;;
25079;SDS011;13071;48.868;9.996;2023-02-28T13:58:37;12.52;;;6.10;;
25079;SDS011;13071;48.868;9.996;2023-02-28T14:01:16;13.57;;;5.90;;
25079;SDS011;13071;48.868;9.996;2023-02-28T14:04:06;16.02;;;6.10;;
25079;SDS011;13071;48.868;9.996;2023-02-28T14:06:46;15.27;;;5.53;;
25079;SDS011;13071;48.868;9.996;2023-02-28T14:09:16;15.75;;;6.28;;
25079;SDS011;13071;48.868;9.996;2023-02-28T14:11:48;16.67;;;6.55;;
25079;SDS011;13071;48.868;9.996;2023-02-28T14:17:21;13.52;;;6.10;;
25079;SDS011;13071;48.868;9.996;2023-02-28T14:19:50;15.32;;;5.20;;
25079;SDS011;13071;48.868;9.996;2023-02-28T14:22:21;13.63;;;6.20;;
25079;SDS011;13071;48.868;9.996;2023-02-28T14:25:10;13.65;;;5.97;;
25079;SDS011;13071;48.868;9.996;2023-02-28T14:27:47;16.23;;;6.22;;
25079;SDS011;13071;48.868;9.996;2023-02-28T14:33:27;16.67;;;5.65;;
25079;SDS011;13071;48.868;9.996;2023-02-28T14:36:12;9.13;;;5.10;;
25079;SDS011;13071;48.868;9.996;2023-02-28T14:38:45;12.35;;;5.57;;
25079;SDS011;13071;48.868;9.996;2023-02-28T14:41:16;16.85;;;6.68;;
25079;SDS011;13071;48.868;9.996;2023-02-28T14:43:53;13.82;;;5.82;;
25079;SDS011;13071;48.868;9.996;2023-02-28T14:46:22;17.30;;;6.30;;
25079;SDS011;13071;48.868;9.996;2023-02-28T14:48:51;12.70;;;6.10;;
25079;SDS011;13071;48.868;9.996;2023-02-28T14:51:20;17.00;;;6.50;;
25079;SDS011;13071;48.868;9.996;2023-02-28T14:53:49;15.07;;;7.28;;
25079;SDS011;13071;48.868;9.996;2023-02-28T14:56:19;15.05;;;5.97;;
25079;SDS011;13071;48.868;9.996;2023-02-28T14:58:51;12.95;;;5.35;;
25079;SDS011;13071;48.868;9.996;2023-02-28T15:01:19;18.23;;;8.20;;
25079;SDS011;13071;48.868;9.996;2023-02-28T15:03:47;16.15;;;7.10;;
25079;SDS011;13071;48.868;9.996;2023-02-28T15:06:14;16.70;;;5.82;;
25079;SDS011;13071;48.868;9.996;2023-02-28T15:08:44;17.40;;;6.15;;
25079;SDS011;13071;48.868;9.996;2023-02-28T15:11:13;21.15;;;6.70;;
25079;SDS011;13071;48.868;9.996;2023-02-28T15:13:41;17.08;;;5.97;;
25079;SDS011;13071;48.868;9.996;2023-02-28T15:16:11;17.88;;;7.10;;
25079;SDS011;13071;48.868;9.996;2023-02-28T15:18:43;12.93;;;5.93;;
25079;SDS011;13071;48.868;9.996;2023-02-28T15:21:15;15.00;;;6.38;;
25079;SDS011;13071;48.868;9.996;2023-02-28T15:23:45;16.27;;;6.22;;
25079;SDS011;13071;48.868;9.996;2023-02-28T15:26:15;14.25;;;5.93;;